Ergebnisliste vom: 25.07.2015 - MŘglitztallauf2015 - 15 km

weitere Ergebnisse >>

Plg. Plm Plw Stnr. Name,Vorname Akm Akw Ak GJ Verein Endzeit RŘckst. WB
1 1   213 Fischer, Andr├ę 1   M20 87 TSV Dresden 0:56:19 0:00:00 3
2 2   246 Langer, Patrick 2   M20 91 Skiklub Dresden-Niedersedlitz 0:58:46 0:02:27 3
3 3   307 Sittner, Falk 1   M30 81 Lauff├Ârdergruppe Gruna 0:59:54 0:03:35 3
4 4   315 Wittwer, Frank 1   M45 68 Dresden 1:00:48 0:04:29 3
5 5   272 Meyer, Tino 1   M35 79 Dresden l├Ąuft 1:01:01 0:04:42 3
6 6   301 Rudloff, Marc 2   M30 83 LSV Pirna 1:01:25 0:05:06 3
7 7   263 Wolf, Daniel 1   M40 74 LG Priestewitz 1:02:05 0:05:46 3
8 8   270 Menning, Dag 1   M50 64 Skizunft Dresden 1:03:33 0:07:14 3
9 9   314 Wensch, Stefan 2   M35 79 Dresden 1:03:46 0:07:27 3
10 10   266 Forstner, Timo 3   M35 79 Laufgruppe Dresden 1:03:52 0:07:33 3
11 11   309 Theumer, Kai 2   M50 65 Dresden 1:04:11 0:07:52 3
12 12   223 Stepanek, Rico 4   M35 80 Dresden 1:05:16 0:08:57 3
13 13   232 Jancker, Hans-Dieter 1   M60 52 SV Elbland Coswig-Mei├čen 1:05:36 0:09:17 3
14 14   220 Hamann, Christian 3   M20 86 Robert-Enke-Stiftung 1:05:57 0:09:38 3
15 15   305 Schwiebs, Bernd 1   M55 57 DUV 1:06:17 0:09:58 3
16 16   227 Schlenker, Silvio 2   M40 74 WSV am blauen Wunder 1:06:40 0:10:21 3
17 17   310 Ulrich, Kai-Uwe 2   M45 66 Dresden 1:06:49 0:10:30 3
18 18   233 B├Âhme, Kai 3   M45 70 LG Priestewitz 1:07:20 0:11:01 3
19 19   247 Lehmann, Ottokar 2   M60 54 TSV Dresden 1:07:28 0:11:09 3
20 20   259 Hantschick, Ricardo 3   M40 73 Gro├čdubrau 1:07:56 0:11:37 3
21   1 240 Kranich, Franziska   1 W30 84 LSV Niesky 1:08:49 0:12:30 3
22 21   244 Schliwa, Sebastian 3   M30 83 Team Tempus/SV Elbland Coswig Mei├čen 1:09:00 0:12:41 3
23 22   238 Rauschenbach, Georg 4   M45 69 Igelkopf-Runners Dresden 1:09:18 0:12:59 3
24 23   304 Schnare, Harald 2   M55 60 Dresden 1:09:52 0:13:33 3
25   2 311 V├Âllmar, Annett   1 W45 68 Dresden 1:10:33 0:14:14 3
26 24   277 Pfeiffer, Holger 3   M55 58 MSV Meusegast 1:10:54 0:14:35 3
27 25   211 Engmann, Marco 4   M30 84 gotorun 1:11:31 0:15:12 3
28 26   288 Ro├čberg, Hans-J├Ârg 4   M55 59 Dresden 1:11:47 0:15:28 3
29 27   302 Sachs, Gerald 5   M45 66 ABC-Zentrum Berlin 1:12:45 0:16:26 3
30 28   229 Irmer, Wolfram 3   M60 55 Kreischa 1:13:25 0:17:06 3
31   3 231 Bunk, Sandra   1 W35 76 LT Linde 79 Dresden 1:13:40 0:17:21 3
32 29   254 Sauer, Sten 6   M45 70 LSV Pirna 1:13:59 0:17:40 3
33 30   273 Moschke, Thomas 5   M30 85 USV TU Dresden 1:15:43 0:19:24 3
34 31   268 Reichelt, Thomas 6   M30 81 Freital 1:15:53 0:19:34 3
35 32   219 Gr├╝newald, Frank 3   M50 63 Empor Possendorf 1:16:04 0:19:45 3
36   4 287 Radke, Claudia   1 W20 87 LSV Pirna 1:16:15 0:19:56 3
37 33   235 Kliemank, Konrad 4   M20 86 (Z)Wiesel 1:16:17 0:19:58 3
38 34   257 Matz, J├╝rgen 5   M55 58 TSV Dresden 1:17:00 0:20:41 3
39 35   225 Hebestreit, Werner 1   M65 47 G-M- Rennsteiglauf 1:17:20 0:21:01 3
40   5 312 Wehner, Susanna   2 W35 78 Pirna 1:17:33 0:21:14 3
41 36   308 Spannaus, Thomas 4   M40 72 Team-Erdinger-Alkoholfrei 1:18:11 0:21:52 3
42 37   215 Fitzpatrick, Anthony 4   M50 65 Bedford & County Athletics Club/ Bedford/ England 1:18:21 0:22:02 3
43   6 201 Baldauf, Ute   1 W55 59 VfL Dresden-B├╝hlau 1:18:34 0:22:15 3
44   7 303 Sch├Ąfer, Katrin   2 W45 66 G├Ąrtners Motorradshop 1:19:11 0:22:52 3
45 38   248 Liebscher, Rainer 2   M65 49 Freital 1:20:11 0:23:52 3
46 39   264 Reichelt, Sven 7   M45 70 Run With the Sun 1:20:33 0:24:14 3
47 40   200 Arnold, Holger Norbert 8   M45 70 Heidenau 1:20:40 0:24:21 3
48 41   317 Zalesky, Benjamin 7   M30 81 Dohna 1:20:43 0:24:24 3
49   8 253 Kro├č, Kathrin   1 W50 61 Skizunft Dresden 1:20:46 0:24:27 3
50   9 230 Jahn, Angela   2 W50 65 Rathmannsdorf 1:21:09 0:24:50 3
51 42   212 Feder, Hartmut 6   M55 60 Meissen 1:21:18 0:24:59 3
52 43   151 Krause, Gerald 7   M55 56 MSV Meusegast 1:21:26 0:25:07 3
53 44   241 Krestew, Thomas 9   M45 66 SV Gr├╝n-Wei├č Elstra/ Gersdorf 1:21:48 0:25:29 3
54   10 265 Wildasin-Werner, Andrea   1 W40 73 Radebeul 1:21:50 0:25:31 3
55   11 256 Jesche, Tatjana   3 W50 64 SV Wacker Mohorn 1:22:39 0:26:20 3
56   12 203 Wessel, B├Ąrbel   2 W55 56 Stolpen 1:22:49 0:26:30 3
57 45   318 Zistel, J├Ârg 5   M35 79 Git los! 1:23:12 0:26:53 3
58 46   217 G├Ąrtner, Matthias 5   M40 71 G├Ąrtners Motorradshop 1:23:31 0:27:12 3
59 47   242 K├╝hn, Holger 4   M60 54 Dresden 1:23:44 0:27:25 3
60   13 214 Schurz, Kerstin   3 W45 70 Dresden 1:23:55 0:27:36 3
61 48   204 B├Âlter, Dirk 5   M50 61 Dresden Marathon 1:24:23 0:28:04 3
62 49   251 Walther, Jens 6   M35 79 Baumann Spedition Dresden 1:24:31 0:28:12 3
63 50   252 Kinder, Marco 8   M30 84 Dresden 1:24:39 0:28:20 3
64   14 216 Frank, Cathleen   4 W45 70 TSV Dresden 1:24:43 0:28:24 3
65   15 316 Zabell, Nadja   5 W45 67 Wermsdorf/ OT Luppa 1:25:21 0:29:02 3
66   16 289 R├╝besam, Romy   2 W30 83 Trebendorf 1:25:45 0:29:26 3
67 51   222 Werner, Tilo 10   M45 68 MSV Meusegast 1:26:04 0:29:45 3
68 52   236 Klo├č, Robert 5   M20 90 Skiklub Dresden-Niedersedlitz 1:26:39 0:30:20 3
69 53   271 Metz, Ralph 11   M45 67 Dresden 1:27:03 0:30:44 3
70 54   276 Petras, Laszlo 5   M60 55 Dresden Marathon 1:27:10 0:30:51 3
71 55   239 Drescher, Markus 7   M35 76 Borna 1:27:23 0:31:04 3
72 56   274 N├Ânnig, J├╝rgen 3   M65 47 SV Wacker Mohorn 1:27:45 0:31:26 3
73 57   226 Heinicke, Wallfried 4   M65 49 Oschatz/ Thalheim 1:28:07 0:31:48 3
74 58   234 Kielstein, Stefan 8   M35 79 Skizunft Dresden 1:28:11 0:31:52 3
75   17 275 Palfi, Edelgard   1 W60 52 Citylaufverein Dresden 1:29:04 0:32:45 3
76   18 202 Bobe, Anett   6 W45 68 Glash├╝tter Bergfreunde 1:29:21 0:33:02 3
76   18 208 Burger, Monika   6 W45 66 Laufgruppe Mohorn-Grund 1:29:21 0:33:02 3
78 59   261 Zeller, Philipp 9   M30 82 Dresden 1:30:21 0:34:02 3
79 60   237 Knobloch, Andreas 8   M55 59 Dohna 1:30:58 0:34:39 3
80 61   250 Mai, Olaf 6   M40 71 Berglaufteam Sorn├čig 1:31:08 0:34:49 3
81 62   205 Br├╝ck, J├╝rgen 9   M55 60 Dresden 1:31:36 0:35:17 3
82 63   249 List, Hans-Joachim 5   M65 49 Ruhland 1:32:25 0:36:06 3
83   20 260 Noack, Andrea   4 W50 65 Geringswalde 1:33:22 0:37:03 3
84 64   255 Oeser, Konrad 6   M65 48 Moritzburg OT Friedewald 1:35:13 0:38:54 3
85 65   209 Dieckmann, Matthias 10   M55 57 Lau├čnitz 1:35:21 0:39:02 3
86   21 267 Hesse, Petra   3 W55 59 LSV Pirna 1:35:44 0:39:25 3
87   22 218 Glasewald, Jenny   3 W30 83 Dresden 1:37:25 0:41:06 3
88 66   224 Betsch, Uli 12   M45 70 Braumeister 1:40:43 0:44:24 3
89   23 313 Wehner, Cornelia   8 W45 70 Laufszene Dresden 1:41:42 0:45:23 3
90 67   262 Slany, Bernd 11   M55 57 LandMAXX-Team 1:42:41 0:46:22 3
91 68   245 Lange, J├╝rgen 7   M65 48 Landesamt f├╝r Steuern und Finanzen 1:44:53 0:48:34 3
92   24 206 Buchs, Christine   4 W55 59 Dresden 1:47:31 0:51:12 3
93 69   207 Buchs, Eberhard 12   M55 58 Dresden 1:47:33 0:51:14 3
94 70   306 Seidel, Steffen 6   M50 64 Dohna 1:48:57 0:52:38 3
(c) 1990-2020 Blue Wonder Sport Promotion - Andreas Burow - Zeitnahme & Auswertung - www.Triathlon-Service.de